Time;durP1;ratioP1;P1;durP2;ratioP2;P2;SDS_P1;SDS_P2;PMS_P1;PMS_P2;Temp;Humidity;BMP_temperature;BMP_pressure;BME280_temperature;BME280_humidity;BME280_pressure;Samples;Min_cycle;Max_cycle;Signal;HPM_P1;HPM_P2
2022/10/27 00:02:44;;;;;;;4.75;2.45;;;;;;;-145.48;100.00;64539.38;5982139;29;20122;-94
2022/10/27 00:05:47;;;;;;;7.93;2.63;;;;;;;-145.48;100.00;64539.38;5997206;29;20511;-94
2022/10/27 00:08:50;;;;;;;3.38;2.55;;;;;;;-145.48;100.00;64539.38;5991701;29;20054;-94
2022/10/27 00:11:55;;;;;;;6.20;2.85;;;;;;;-145.48;100.00;64539.38;5989227;29;20053;-94
2022/10/27 00:14:56;;;;;;;4.72;2.95;;;;;;;-145.48;100.00;64539.38;5988185;29;20135;-94
2022/10/27 00:17:58;;;;;;;3.88;2.80;;;;;;;-145.48;100.00;64539.38;6007377;29;20133;-94
2022/10/27 00:21:03;;;;;;;4.68;2.90;;;;;;;-145.48;100.00;64539.38;5993524;29;20509;-94
2022/10/27 00:24:05;;;;;;;6.07;2.88;;;;;;;-145.48;100.00;64539.38;6005698;29;20054;-94
2022/10/27 00:27:07;;;;;;;3.70;2.60;;;;;;;-145.48;100.00;64539.38;5998183;29;20128;-94
2022/10/27 00:30:10;;;;;;;5.15;2.72;;;;;;;-145.48;100.00;64539.38;5988624;29;20054;-94
2022/10/27 00:33:12;;;;;;;3.63;2.35;;;;;;;-145.48;100.00;64539.38;5996111;29;20038;-94
2022/10/27 00:36:16;;;;;;;5.50;2.47;;;;;;;-145.48;100.00;64539.38;5986215;29;20554;-94
2022/10/27 00:39:18;;;;;;;4.20;2.65;;;;;;;-145.48;100.00;64539.38;6001938;29;20049;-95
2022/10/27 00:42:20;;;;;;;4.40;2.60;;;;;;;-145.48;100.00;64539.38;5995241;29;20086;-95
2022/10/27 00:45:22;;;;;;;6.13;2.75;;;;;;;-145.48;100.00;64539.38;5995479;29;20796;-95
2022/10/27 00:48:25;;;;;;;4.22;2.58;;;;;;;-145.48;100.00;64539.38;5997842;29;20054;-95
2022/10/27 00:51:27;;;;;;;2.90;2.28;;;;;;;-145.48;100.00;64539.38;5997664;29;20749;-95
2022/10/27 00:54:35;;;;;;;7.25;3.08;;;;;;;-145.48;100.00;64539.38;5987923;29;20183;-94
2022/10/27 00:57:37;;;;;;;4.53;2.53;;;;;;;-145.48;100.00;64539.38;5987738;29;20603;-96
2022/10/27 01:00:42;;;;;;;4.80;2.72;;;;;;;-145.48;100.00;64539.38;5998157;29;20125;-95
2022/10/27 01:03:45;;;;;;;8.93;3.05;;;;;;;-145.48;100.00;64539.38;5984417;29;20046;-95
2022/10/27 01:06:46;;;;;;;5.70;2.78;;;;;;;-145.48;100.00;64539.38;5996962;29;20053;-95
2022/10/27 01:09:49;;;;;;;4.70;2.83;;;;;;;-145.48;100.00;64539.38;5984596;29;20053;-95
2022/10/27 01:12:58;;;;;;;3.50;2.60;;;;;;;-145.48;100.00;64539.38;5986840;29;20038;-95
2022/10/27 01:16:38;;;;;;;5.53;2.78;;;;;;;-145.48;100.00;64539.38;5995552;29;20057;-95
2022/10/27 01:20:10;;;;;;;6.35;2.53;;;;;;;-145.48;100.00;64539.38;5997704;29;20057;-95
2022/10/27 01:23:35;;;;;;;3.55;2.42;;;;;;;-145.48;100.00;64539.38;6002628;29;20053;-96
2022/10/27 01:26:51;;;;;;;3.90;2.60;;;;;;;-145.48;100.00;64539.38;6005476;29;20046;-95
2022/10/27 01:30:08;;;;;;;5.85;2.78;;;;;;;-145.48;100.00;64539.38;5974495;29;20061;-95
2022/10/27 01:33:17;;;;;;;3.95;2.38;;;;;;;-145.48;100.00;64539.38;6000865;29;20042;-94
2022/10/27 01:36:52;;;;;;;5.00;2.22;;;;;;;-145.48;100.00;64539.38;6001188;29;20568;-95
2022/10/27 01:40:03;;;;;;;4.07;2.72;;;;;;;-145.48;100.00;64539.38;5999174;29;20069;-95
2022/10/27 01:43:12;;;;;;;2.80;2.13;;;;;;;-145.48;100.00;64539.38;5985633;29;20085;-95
2022/10/27 01:46:15;;;;;;;4.95;2.45;;;;;;;-145.48;100.00;64539.38;5996888;29;20153;-95
2022/10/27 01:49:19;;;;;;;3.75;2.05;;;;;;;-145.48;100.00;64539.38;6001111;29;20057;-95
2022/10/27 01:52:45;;;;;;;4.15;2.65;;;;;;;-145.48;100.00;64539.38;5999945;29;20045;-95
2022/10/27 01:55:59;;;;;;;4.10;2.20;;;;;;;-145.48;100.00;64539.38;5992959;29;20117;-95
2022/10/27 01:59:36;;;;;;;3.85;2.38;;;;;;;-145.48;100.00;64539.38;6010958;29;20069;-96
2022/10/27 02:03:16;;;;;;;3.83;2.40;;;;;;;-145.48;100.00;64539.38;5999620;29;20450;-95
2022/10/27 02:06:39;;;;;;;8.27;2.50;;;;;;;-145.48;100.00;64539.38;5973772;29;20073;-96
2022/10/27 02:09:46;;;;;;;6.03;2.40;;;;;;;-145.48;100.00;64539.38;5973784;29;20505;-95
2022/10/27 02:12:49;;;;;;;2.45;2.17;;;;;;;-145.48;100.00;64539.38;5973455;29;20493;-96
2022/10/27 02:15:59;;;;;;;4.47;2.38;;;;;;;-145.48;100.00;64539.38;5970106;29;20066;-96
2022/10/27 02:19:15;;;;;;;4.57;2.00;;;;;;;-145.48;100.00;64539.38;5974291;29;20592;-95
2022/10/27 02:22:17;;;;;;;5.40;2.22;;;;;;;-145.48;100.00;64539.38;5973641;29;20321;-95
2022/10/27 02:25:28;;;;;;;4.25;2.45;;;;;;;-145.48;100.00;64539.38;5973433;29;20243;-95
2022/10/27 02:28:44;;;;;;;3.95;2.28;;;;;;;-145.48;100.00;64539.38;5973902;29;20661;-95
2022/10/27 02:31:51;;;;;;;4.88;2.50;;;;;;;-145.48;100.00;64539.38;5968868;29;20062;-95
2022/10/27 02:34:53;;;;;;;4.45;2.10;;;;;;;-145.48;100.00;64539.38;5960095;29;20054;-95
2022/10/27 02:37:58;;;;;;;3.92;2.42;;;;;;;-145.48;100.00;64539.38;5978821;29;20473;-95
2022/10/27 02:41:00;;;;;;;2.88;2.10;;;;;;;-145.48;100.00;64539.38;5975460;29;20125;-95
2022/10/27 02:44:02;;;;;;;8.68;2.58;;;;;;;-145.48;100.00;64539.38;6005024;29;20182;-95
2022/10/27 02:47:05;;;;;;;7.65;2.70;;;;;;;-145.48;100.00;64539.38;5996930;29;20070;-95
2022/10/27 02:50:10;;;;;;;15.65;2.60;;;;;;;-145.48;100.00;64539.38;5995211;29;20054;-96
2022/10/27 02:53:12;;;;;;;3.80;2.53;;;;;;;-145.48;100.00;64539.38;5993050;29;20593;-96
2022/10/27 02:56:14;;;;;;;7.97;2.25;;;;;;;-145.48;100.00;64539.38;5994591;29;20182;-95
2022/10/27 02:59:16;;;;;;;6.50;2.50;;;;;;;-145.48;100.00;64539.38;6000249;29;20656;-96
2022/10/27 03:02:18;;;;;;;3.83;2.15;;;;;;;-145.48;100.00;64539.38;6000135;29;20109;-95
2022/10/27 03:05:19;;;;;;;6.07;2.42;;;;;;;-145.48;100.00;64539.38;5999787;29;20182;-95
2022/10/27 03:08:21;;;;;;;4.03;2.53;;;;;;;-145.48;100.00;64539.38;5996791;29;20175;-95
2022/10/27 03:11:23;;;;;;;3.30;2.47;;;;;;;-145.48;100.00;64539.38;5991323;29;20046;-96
2022/10/27 03:14:25;;;;;;;3.95;2.42;;;;;;;-145.48;100.00;64539.38;5988308;29;20058;-95
2022/10/27 03:17:27;;;;;;;4.65;2.65;;;;;;;-145.48;100.00;64539.38;6001452;29;20101;-96
2022/10/27 03:20:29;;;;;;;4.63;2.42;;;;;;;-145.48;100.00;64539.38;5998045;29;20498;-96
2022/10/27 03:23:31;;;;;;;4.30;2.25;;;;;;;-145.48;100.00;64539.38;5997234;29;20057;-95
2022/10/27 03:26:33;;;;;;;7.80;2.63;;;;;;;-145.48;100.00;64539.38;6013588;29;20042;-95
2022/10/27 03:29:41;;;;;;;3.70;2.55;;;;;;;-145.48;100.00;64539.38;5995815;29;20054;-95
2022/10/27 03:32:50;;;;;;;8.88;2.58;;;;;;;-145.48;100.00;64539.38;5998265;29;20053;-95
2022/10/27 03:35:53;;;;;;;4.53;2.80;;;;;;;-145.48;100.00;64539.38;5999838;29;20045;-96
2022/10/27 03:38:56;;;;;;;5.18;2.60;;;;;;;-145.48;100.00;64539.38;6016958;29;20045;-96
2022/10/27 03:41:58;;;;;;;5.13;2.95;;;;;;;-145.48;100.00;64539.38;5997500;29;20056;-95
2022/10/27 03:44:59;;;;;;;5.88;3.10;;;;;;;-145.48;100.00;64539.38;5991774;29;20049;-95
2022/10/27 03:48:04;;;;;;;4.00;2.60;;;;;;;-145.48;100.00;64539.38;6006246;29;20058;-95
2022/10/27 03:51:07;;;;;;;4.70;2.58;;;;;;;-145.48;100.00;64539.38;5994043;29;20073;-96
2022/10/27 03:54:09;;;;;;;4.53;3.00;;;;;;;-145.48;100.00;64539.38;5993773;29;20125;-96
2022/10/27 03:57:11;;;;;;;4.50;2.80;;;;;;;-145.48;100.00;64539.38;6008412;29;20518;-95
2022/10/27 04:00:17;;;;;;;4.13;2.55;;;;;;;-145.48;100.00;64539.38;6014307;29;20034;-95
2022/10/27 04:03:19;;;;;;;5.13;2.85;;;;;;;-145.48;100.00;64539.38;5990400;29;20491;-95
2022/10/27 04:06:20;;;;;;;6.10;2.63;;;;;;;-145.48;100.00;64539.38;5999226;29;20497;-95
2022/10/27 04:09:22;;;;;;;5.68;2.75;;;;;;;-145.48;100.00;64539.38;6000022;29;20046;-95
2022/10/27 04:12:24;;;;;;;6.93;2.85;;;;;;;-145.48;100.00;64539.38;5994648;29;20049;-95
2022/10/27 04:15:27;;;;;;;7.28;3.08;;;;;;;-145.48;100.00;64539.38;5996720;29;20512;-96
2022/10/27 04:18:29;;;;;;;5.60;2.83;;;;;;;-145.48;100.00;64539.38;5991529;29;20137;-95
2022/10/27 04:21:30;;;;;;;4.88;3.00;;;;;;;-145.48;100.00;64539.38;5992191;29;20085;-94
2022/10/27 04:24:32;;;;;;;4.15;3.13;;;;;;;-145.48;100.00;64539.38;5982775;29;20046;-95
2022/10/27 04:27:34;;;;;;;6.18;3.13;;;;;;;-145.48;100.00;64539.38;5980603;29;20046;-94
2022/10/27 04:30:36;;;;;;;5.72;2.88;;;;;;;-145.48;100.00;64539.38;5983625;29;20050;-95
2022/10/27 04:33:39;;;;;;;6.68;2.80;;;;;;;-145.48;100.00;64539.38;5999827;29;20050;-96
2022/10/27 04:36:41;;;;;;;6.10;3.28;;;;;;;-145.48;100.00;64539.38;5997991;29;20202;-96
2022/10/27 04:39:43;;;;;;;7.20;3.22;;;;;;;-145.48;100.00;64539.38;5999108;29;20046;-96
2022/10/27 04:42:45;;;;;;;5.22;3.15;;;;;;;-145.48;100.00;64539.38;5995167;29;20053;-95
2022/10/27 04:45:47;;;;;;;7.55;3.35;;;;;;;-145.48;100.00;64539.38;5998982;29;20057;-96
2022/10/27 04:48:49;;;;;;;5.50;2.90;;;;;;;-145.48;100.00;64539.38;5994225;29;20125;-95
2022/10/27 04:51:51;;;;;;;4.68;3.30;;;;;;;-145.48;100.00;64539.38;5981665;29;20164;-95
2022/10/27 04:54:53;;;;;;;4.75;3.40;;;;;;;-145.48;100.00;64539.38;5982150;29;20038;-95
2022/10/27 04:57:56;;;;;;;6.28;3.22;;;;;;;-145.48;100.00;64539.38;5990143;29;20041;-95
2022/10/27 05:00:57;;;;;;;7.80;3.00;;;;;;;-145.48;100.00;64539.38;5987218;29;20058;-95
2022/10/27 05:03:59;;;;;;;4.93;3.10;;;;;;;-145.48;100.00;64539.38;5988228;29;20053;-95
2022/10/27 05:07:01;;;;;;;6.68;3.05;;;;;;;-145.48;100.00;64539.38;5988578;29;20046;-95
2022/10/27 05:10:03;;;;;;;5.88;3.28;;;;;;;-145.48;100.00;64539.38;5986452;29;20079;-95
2022/10/27 05:13:06;;;;;;;4.10;3.28;;;;;;;-145.48;100.00;64539.38;5994789;29;20802;-95
2022/10/27 05:16:08;;;;;;;5.80;3.10;;;;;;;-145.48;100.00;64539.38;5995906;29;20043;-95
2022/10/27 05:19:10;;;;;;;5.93;3.30;;;;;;;-145.48;100.00;64539.38;5998370;29;20053;-95
2022/10/27 05:22:12;;;;;;;6.68;3.67;;;;;;;-145.48;100.00;64539.38;6002578;29;20514;-94
2022/10/27 05:25:14;;;;;;;5.30;3.47;;;;;;;-145.48;100.00;64539.38;5986182;29;20121;-94
2022/10/27 05:28:16;;;;;;;7.50;3.78;;;;;;;-145.48;100.00;64539.38;5987120;29;20572;-94
2022/10/27 05:31:18;;;;;;;6.80;3.63;;;;;;;-145.48;100.00;64539.38;6014990;29;20169;-95
2022/10/27 05:34:20;;;;;;;4.80;3.80;;;;;;;-145.48;100.00;64539.38;6004655;29;20516;-94
2022/10/27 05:37:23;;;;;;;7.75;4.20;;;;;;;-145.48;100.00;64539.38;5999926;29;20057;-94
2022/10/27 05:40:24;;;;;;;7.93;3.85;;;;;;;-145.48;100.00;64539.38;6000472;29;20516;-94
2022/10/27 05:43:26;;;;;;;8.90;4.18;;;;;;;-145.48;100.00;64539.38;5984696;29;20569;-94
2022/10/27 05:46:31;;;;;;;5.20;3.85;;;;;;;-145.48;100.00;64539.38;6001603;29;20352;-94
2022/10/27 05:49:33;;;;;;;4.63;3.47;;;;;;;-145.48;100.00;64539.38;6014246;29;20068;-95
2022/10/27 05:52:35;;;;;;;6.78;4.05;;;;;;;-145.48;100.00;64539.38;5985022;29;20050;-94
2022/10/27 05:55:37;;;;;;;6.60;3.72;;;;;;;-145.48;100.00;64539.38;6006568;29;20055;-94
2022/10/27 05:58:38;;;;;;;7.35;4.22;;;;;;;-145.48;100.00;64539.38;6012472;29;20206;-94
2022/10/27 06:01:40;;;;;;;7.55;4.50;;;;;;;-145.48;100.00;64539.38;6001633;29;20049;-94
2022/10/27 06:04:43;;;;;;;6.60;3.95;;;;;;;-145.48;100.00;64539.38;5984352;29;20046;-94
2022/10/27 06:07:45;;;;;;;8.20;4.15;;;;;;;-145.48;100.00;64539.38;5988671;29;20074;-94
2022/10/27 06:10:47;;;;;;;8.63;3.85;;;;;;;-145.48;100.00;64539.38;5984716;29;20034;-94
2022/10/27 06:13:51;;;;;;;9.32;4.38;;;;;;;-145.48;100.00;64539.38;5997044;29;20584;-95
2022/10/27 06:16:53;;;;;;;8.18;4.28;;;;;;;-145.48;100.00;64539.38;5999931;29;20049;-94
2022/10/27 06:19:58;;;;;;;6.57;4.03;;;;;;;-145.48;100.00;64539.38;5982204;29;20050;-94
2022/10/27 06:23:01;;;;;;;7.45;4.35;;;;;;;-145.48;100.00;64539.38;5988057;29;20529;-94
2022/10/27 06:26:03;;;;;;;7.28;4.85;;;;;;;-145.48;100.00;64539.38;6001978;29;20139;-95
2022/10/27 06:29:06;;;;;;;9.48;4.47;;;;;;;-145.48;100.00;64539.38;6000347;29;20057;-94
2022/10/27 06:32:08;;;;;;;8.50;4.43;;;;;;;-145.48;100.00;64539.38;6001114;29;20333;-94
2022/10/27 06:35:10;;;;;;;16.30;4.53;;;;;;;-145.48;100.00;64539.38;6000687;29;20053;-95
2022/10/27 06:38:15;;;;;;;8.93;4.97;;;;;;;-145.48;100.00;64539.38;6001087;29;20054;-94
2022/10/27 06:41:17;;;;;;;6.50;4.47;;;;;;;-145.48;100.00;64539.38;5995925;29;20057;-93
2022/10/27 06:44:19;;;;;;;8.65;4.40;;;;;;;-145.48;100.00;64539.38;5995113;29;20532;-94
2022/10/27 06:47:21;;;;;;;8.95;4.40;;;;;;;-145.48;100.00;64539.38;5993102;29;20053;-93
2022/10/27 06:50:23;;;;;;;7.63;5.10;;;;;;;-145.48;100.00;64539.38;6005875;29;20066;-94
2022/10/27 06:53:29;;;;;;;7.32;4.63;;;;;;;-145.48;100.00;64539.38;5999789;29;20095;-94
2022/10/27 06:56:33;;;;;;;7.63;4.47;;;;;;;-145.48;100.00;64539.38;5991628;29;20053;-95
2022/10/27 06:59:36;;;;;;;6.45;4.80;;;;;;;-145.48;100.00;64539.38;5990799;29;20536;-94
2022/10/27 07:02:39;;;;;;;8.25;5.57;;;;;;;-145.48;100.00;64539.38;5998868;29;20579;-94
2022/10/27 07:05:41;;;;;;;7.72;4.38;;;;;;;-145.48;100.00;64539.38;5999885;29;20053;-93
2022/10/27 07:08:42;;;;;;;7.78;5.05;;;;;;;-145.48;100.00;64539.38;6000090;29;20435;-94
2022/10/27 07:11:44;;;;;;;7.25;4.53;;;;;;;-145.48;100.00;64539.38;6001441;29;20050;-94
2022/10/27 07:14:46;;;;;;;6.90;4.35;;;;;;;-145.48;100.00;64539.38;5985168;29;20533;-95
2022/10/27 07:17:54;;;;;;;9.45;4.55;;;;;;;-145.48;100.00;64539.38;6000056;29;20527;-94
2022/10/27 07:21:00;;;;;;;7.60;4.65;;;;;;;-145.48;100.00;64539.38;5998393;29;20046;-94
2022/10/27 07:24:02;;;;;;;8.20;4.57;;;;;;;-145.48;100.00;64539.38;5996733;29;20087;-93
2022/10/27 07:27:04;;;;;;;7.32;4.80;;;;;;;-145.48;100.00;64539.38;5999023;29;20049;-94
2022/10/27 07:30:10;;;;;;;9.05;4.70;;;;;;;-145.48;100.00;64539.38;5993288;29;20102;-94
2022/10/27 07:33:13;;;;;;;8.95;4.45;;;;;;;-145.48;100.00;64539.38;6001159;29;20058;-95
2022/10/27 07:36:15;;;;;;;6.07;4.38;;;;;;;-145.48;100.00;64539.38;5996462;29;20129;-94
2022/10/27 07:39:17;;;;;;;11.50;4.68;;;;;;;-145.48;100.00;64539.38;5989865;29;20459;-94
2022/10/27 07:42:19;;;;;;;6.03;3.63;;;;;;;-145.48;100.00;64539.38;5986282;29;20137;-93
2022/10/27 07:45:23;;;;;;;6.75;4.05;;;;;;;-145.48;100.00;64539.38;5993017;29;20049;-93
2022/10/27 07:48:25;;;;;;;9.40;4.70;;;;;;;-145.48;100.00;64539.38;5998135;29;20073;-94
2022/10/27 07:51:27;;;;;;;5.65;4.18;;;;;;;-145.48;100.00;64539.38;6000009;29;20523;-94
2022/10/27 07:54:28;;;;;;;6.20;3.95;;;;;;;-145.48;100.00;64539.38;5984499;29;20046;-93
2022/10/27 07:57:30;;;;;;;5.38;4.10;;;;;;;-145.48;100.00;64539.38;6000216;29;20045;-94
2022/10/27 08:00:34;;;;;;;6.55;4.10;;;;;;;-145.48;100.00;64539.38;5999031;29;20398;-92
2022/10/27 08:03:35;;;;;;;6.43;3.75;;;;;;;-145.48;100.00;64539.38;5996752;29;20494;-92
2022/10/27 08:06:38;;;;;;;8.38;4.22;;;;;;;-145.48;100.00;64539.38;5992260;29;20182;-92
2022/10/27 08:09:42;;;;;;;6.10;3.70;;;;;;;-145.48;100.00;64539.38;5999168;29;20062;-92
2022/10/27 08:12:45;;;;;;;5.40;4.22;;;;;;;-145.48;100.00;64539.38;5983907;29;20473;-92
2022/10/27 08:15:47;;;;;;;7.72;4.15;;;;;;;-145.48;100.00;64539.38;5993878;29;20299;-93
2022/10/27 08:18:49;;;;;;;15.38;4.70;;;;;;;-145.48;100.00;64539.38;5994162;29;20050;-92
2022/10/27 08:21:54;;;;;;;7.07;4.30;;;;;;;-145.48;100.00;64539.38;6012249;29;20042;-92
2022/10/27 08:24:55;;;;;;;6.38;4.80;;;;;;;-145.48;100.00;64539.38;5990424;29;20053;-92
2022/10/27 08:27:58;;;;;;;8.00;4.60;;;;;;;-145.48;100.00;64539.38;5981132;29;20160;-92
2022/10/27 08:31:00;;;;;;;9.32;4.47;;;;;;;-145.48;100.00;64539.38;5996952;29;20510;-93
2022/10/27 08:34:02;;;;;;;7.78;4.68;;;;;;;-145.48;100.00;64539.38;6001847;29;20057;-93
2022/10/27 08:37:04;;;;;;;8.05;4.35;;;;;;;-145.48;100.00;64539.38;5981381;29;20042;-92
2022/10/27 08:40:08;;;;;;;7.20;4.50;;;;;;;-145.48;100.00;64539.38;5992440;29;20054;-92
2022/10/27 08:43:41;;;;;;;7.80;4.30;;;;;;;-145.48;100.00;64539.38;5999800;29;20619;-92
2022/10/27 08:46:46;;;;;;;6.60;4.18;;;;;;;-145.48;100.00;64539.38;5999213;29;20128;-93
2022/10/27 08:49:50;;;;;;;7.18;4.22;;;;;;;-145.48;100.00;64539.38;5995928;29;20091;-93
2022/10/27 08:53:02;;;;;;;7.50;4.20;;;;;;;-145.48;100.00;64539.38;5991001;29;20049;-92
2022/10/27 08:56:10;;;;;;;9.07;4.10;;;;;;;-145.48;100.00;64539.38;6003619;29;20298;-93
2022/10/27 08:59:20;;;;;;;5.25;3.88;;;;;;;-145.48;100.00;64539.38;6002358;29;20538;-92
2022/10/27 09:02:29;;;;;;;8.70;4.10;;;;;;;-145.48;100.00;64539.38;5996166;29;20466;-92
2022/10/27 09:05:43;;;;;;;6.60;3.85;;;;;;;-145.48;100.00;64539.38;6015167;29;20042;-92
2022/10/27 09:09:16;;;;;;;6.55;3.78;;;;;;;-145.48;100.00;64539.38;5998704;29;20605;-92
2022/10/27 09:12:56;;;;;;;8.93;4.00;;;;;;;-145.48;100.00;64539.38;6001474;29;20058;-92
2022/10/27 09:16:08;;;;;;;7.57;3.72;;;;;;;-145.48;100.00;64539.38;6009888;29;20445;-92
2022/10/27 09:19:18;;;;;;;5.80;3.63;;;;;;;-145.48;100.00;64539.38;6003824;29;20045;-93
2022/10/27 09:22:21;;;;;;;7.80;3.60;;;;;;;-145.48;100.00;64539.38;5992496;29;20042;-93
2022/10/27 09:25:24;;;;;;;6.20;3.80;;;;;;;-145.48;100.00;64539.38;5994678;29;20444;-92
2022/10/27 09:28:50;;;;;;;5.35;3.88;;;;;;;-145.48;100.00;64539.38;5996182;29;20057;-92
2022/10/27 09:32:12;;;;;;;7.97;3.50;;;;;;;-145.48;100.00;64539.38;5994448;29;20057;-92
2022/10/27 09:35:17;;;;;;;7.70;4.28;;;;;;;-145.48;100.00;64539.38;6006403;29;20050;-92
2022/10/27 09:38:24;;;;;;;8.95;3.63;;;;;;;-145.48;100.00;64539.38;5991992;29;20406;-93
2022/10/27 09:41:26;;;;;;;7.38;3.88;;;;;;;-145.48;100.00;64539.38;6001801;29;20125;-93
2022/10/27 09:44:30;;;;;;;4.85;3.40;;;;;;;-145.48;100.00;64539.38;5997995;29;20606;-92
2022/10/27 09:47:37;;;;;;;8.00;3.63;;;;;;;-145.48;100.00;64539.38;5995965;29;20586;-94
2022/10/27 09:51:00;;;;;;;7.15;3.80;;;;;;;-145.48;100.00;64539.38;5997825;29;20098;-92
2022/10/27 09:54:04;;;;;;;7.40;3.47;;;;;;;-145.48;100.00;64539.38;5998843;29;20046;-92
2022/10/27 09:57:21;;;;;;;11.00;3.60;;;;;;;-145.48;100.00;64539.38;5998396;29;20042;-92
2022/10/27 10:00:26;;;;;;;5.55;3.33;;;;;;;-145.48;100.00;64539.38;6009517;29;20179;-93
2022/10/27 10:03:28;;;;;;;6.20;3.47;;;;;;;-145.48;100.00;64539.38;5997221;29;20125;-93
2022/10/27 10:06:37;;;;;;;7.63;3.05;;;;;;;-145.48;100.00;64539.38;6001098;29;20046;-92
2022/10/27 10:09:38;;;;;;;7.30;3.50;;;;;;;-145.48;100.00;64539.38;6001043;29;20057;-93
2022/10/27 10:12:40;;;;;;;6.97;3.30;;;;;;;-145.48;100.00;64539.38;5995158;29;20104;-92
2022/10/27 10:15:45;;;;;;;5.43;2.83;;;;;;;-145.48;100.00;64539.38;5983472;29;20081;-93
2022/10/27 10:19:04;;;;;;;5.75;2.67;;;;;;;-145.48;100.00;64539.38;5986127;29;20128;-92
2022/10/27 10:22:20;;;;;;;5.78;2.75;;;;;;;-145.48;100.00;64539.38;6000358;29;20137;-93
2022/10/27 10:25:26;;;;;;;7.65;2.92;;;;;;;-145.48;100.00;64539.38;6001340;29;20057;-93
2022/10/27 10:28:54;;;;;;;4.63;2.83;;;;;;;-145.48;100.00;64539.38;6000428;29;20069;-92
2022/10/27 10:32:11;;;;;;;5.15;2.38;;;;;;;-145.48;100.00;64539.38;5991792;29;20058;-92
2022/10/27 10:35:48;;;;;;;4.50;2.38;;;;;;;-145.48;100.00;64539.38;5992843;29;20054;-93
2022/10/27 10:38:55;;;;;;;8.10;2.70;;;;;;;-145.48;100.00;64539.38;6011035;29;20042;-93
2022/10/27 10:42:09;;;;;;;6.47;2.42;;;;;;;-145.48;100.00;64539.38;6000251;29;20582;-94
2022/10/27 10:45:20;;;;;;;3.97;2.15;;;;;;;-145.48;100.00;64539.38;6014713;29;20041;-92
2022/10/27 10:48:40;;;;;;;4.07;2.97;;;;;;;-145.48;100.00;64539.38;5990277;29;20044;-92
2022/10/27 10:51:51;;;;;;;4.88;2.65;;;;;;;-145.48;100.00;64539.38;5993355;29;20595;-92
2022/10/27 10:54:53;;;;;;;6.07;2.92;;;;;;;-145.48;100.00;64539.38;5992703;29;20060;-92
2022/10/27 10:57:57;;;;;;;4.38;2.90;;;;;;;-145.48;100.00;64539.38;5992880;29;20073;-92
2022/10/27 11:01:01;;;;;;;3.08;2.15;;;;;;;-145.48;100.00;64539.38;5993824;29;20057;-92
2022/10/27 11:04:04;;;;;;;4.00;2.45;;;;;;;-145.48;100.00;64539.38;5994595;29;20042;-92
2022/10/27 11:07:22;;;;;;;4.90;2.55;;;;;;;-145.48;100.00;64539.38;5999880;29;20034;-92
2022/10/27 11:10:29;;;;;;;5.00;2.30;;;;;;;-145.48;100.00;64539.38;5996401;29;20433;-92
2022/10/27 11:13:42;;;;;;;9.98;3.60;;;;;;;-145.48;100.00;64539.38;5997262;29;20178;-92
2022/10/27 11:16:50;;;;;;;3.17;2.20;;;;;;;-145.48;100.00;64539.38;5986522;29;20057;-92
2022/10/27 11:19:55;;;;;;;4.40;2.40;;;;;;;-145.48;100.00;64539.38;6000998;29;20429;-92
2022/10/27 11:22:59;;;;;;;4.45;2.30;;;;;;;-145.48;100.00;64539.38;6001322;29;20062;-92
2022/10/27 11:26:02;;;;;;;5.50;2.28;;;;;;;-145.48;100.00;64539.38;5998778;29;20058;-92
2022/10/27 11:29:15;;;;;;;4.35;2.10;;;;;;;-145.48;100.00;64539.38;5998070;29;20042;-92
2022/10/27 11:32:32;;;;;;;4.13;2.25;;;;;;;-145.48;100.00;64539.38;5998417;29;20039;-92
2022/10/27 11:35:44;;;;;;;2.67;2.00;;;;;;;-145.48;100.00;64539.38;5991762;29;20057;-92
2022/10/27 11:39:08;;;;;;;2.40;1.98;;;;;;;-145.48;100.00;64539.38;6000063;29;20061;-92
2022/10/27 11:42:30;;;;;;;4.53;2.60;;;;;;;-145.48;100.00;64539.38;5997836;29;20096;-92
2022/10/27 11:45:41;;;;;;;6.28;3.25;;;;;;;-145.48;100.00;64539.38;5998614;29;20484;-92
2022/10/27 11:48:59;;;;;;;4.70;2.78;;;;;;;-145.48;100.00;64539.38;5998025;29;20056;-92
2022/10/27 11:52:20;;;;;;;3.30;2.30;;;;;;;-145.48;100.00;64539.38;5994919;29;20140;-92
2022/10/27 11:55:28;;;;;;;3.58;2.45;;;;;;;-145.48;100.00;64539.38;5994030;29;20575;-92
2022/10/27 11:58:42;;;;;;;4.90;1.95;;;;;;;-145.48;100.00;64539.38;5994097;29;20163;-92
2022/10/27 12:01:56;;;;;;;3.65;2.50;;;;;;;-145.48;100.00;64539.38;5982424;29;20057;-92
2022/10/27 12:05:23;;;;;;;4.32;2.22;;;;;;;-145.48;100.00;64539.38;5991308;29;20049;-92
2022/10/27 12:09:07;;;;;;;5.85;2.20;;;;;;;-145.48;100.00;64539.38;5990487;29;20050;-92
2022/10/27 12:12:42;;;;;;;3.35;2.30;;;;;;;-145.48;100.00;64539.38;5998325;29;20131;-92
2022/10/27 12:16:08;;;;;;;3.83;1.70;;;;;;;-145.48;100.00;64539.38;5999719;29;20042;-91
2022/10/27 12:19:14;;;;;;;4.43;1.55;;;;;;;-145.48;100.00;64539.38;5999848;29;20045;-91
2022/10/27 12:22:52;;;;;;;2.47;1.27;;;;;;;-145.48;100.00;64539.38;5998312;29;20058;-91
2022/10/27 12:26:27;;;;;;;3.88;1.73;;;;;;;-145.48;100.00;64539.38;5998285;29;20505;-91
2022/10/27 12:29:41;;;;;;;2.95;1.55;;;;;;;-145.48;100.00;64539.38;6000680;29;20497;-92
2022/10/27 12:33:00;;;;;;;3.05;1.60;;;;;;;-145.48;100.00;64539.38;5997860;29;20573;-92
2022/10/27 12:36:17;;;;;;;3.75;1.63;;;;;;;-145.48;100.00;64539.38;5997713;29;20136;-91
2022/10/27 12:39:27;;;;;;;1.60;1.50;;;;;;;-145.48;100.00;64539.38;5996134;29;20549;-92
2022/10/27 12:42:49;;;;;;;2.75;1.50;;;;;;;-145.48;100.00;64539.38;5986073;29;20062;-91
2022/10/27 12:46:14;;;;;;;3.15;1.50;;;;;;;-145.48;100.00;64539.38;5993234;29;20441;-91
2022/10/27 12:49:47;;;;;;;4.93;1.80;;;;;;;-145.48;100.00;64539.38;6001737;29;20124;-92
2022/10/27 12:52:57;;;;;;;2.42;1.50;;;;;;;-145.48;100.00;64539.38;5985610;29;20117;-91
2022/10/27 12:56:31;;;;;;;3.28;1.52;;;;;;;-145.48;100.00;64539.38;5991708;29;20055;-91
2022/10/27 12:59:57;;;;;;;3.45;1.48;;;;;;;-145.48;100.00;64539.38;5989194;29;20290;-91
2022/10/27 13:03:21;;;;;;;3.75;1.67;;;;;;;-145.48;100.00;64539.38;5984605;29;20502;-91
2022/10/27 13:07:15;;;;;;;3.20;1.40;;;;;;;-145.48;100.00;64539.38;5991442;29;20099;-91
2022/10/27 13:10:44;;;;;;;2.97;1.70;;;;;;;-145.48;100.00;64539.38;5977697;29;20057;-91
2022/10/27 13:14:24;;;;;;;2.53;1.42;;;;;;;-145.48;100.00;64539.38;5976583;29;20061;-92
2022/10/27 13:17:50;;;;;;;4.07;1.40;;;;;;;-145.48;100.00;64539.38;5994244;29;20233;-92
2022/10/27 13:21:10;;;;;;;4.53;2.92;;;;;;;-145.48;100.00;64539.38;5983002;29;20386;-91
2022/10/27 13:24:36;;;;;;;3.13;2.25;;;;;;;-145.48;100.00;64539.38;5985342;29;20070;-92
2022/10/27 13:28:03;;;;;;;3.20;1.63;;;;;;;-145.48;100.00;64539.38;5998452;29;20065;-91
2022/10/27 13:31:18;;;;;;;4.45;1.70;;;;;;;-145.48;100.00;64539.38;5998621;29;20111;-91
2022/10/27 13:34:20;;;;;;;3.15;1.85;;;;;;;-145.48;100.00;64539.38;5997722;29;20161;-92
2022/10/27 13:37:53;;;;;;;5.25;1.40;;;;;;;-145.48;100.00;64539.38;5991858;29;20547;-91
2022/10/27 13:40:57;;;;;;;1.58;1.20;;;;;;;-145.48;100.00;64539.38;5991030;29;20125;-91
2022/10/27 13:44:01;;;;;;;3.63;1.42;;;;;;;-145.48;100.00;64539.38;5989160;29;20051;-92
2022/10/27 13:47:03;;;;;;;3.92;1.50;;;;;;;-145.48;100.00;64539.38;5996992;29;20050;-92
2022/10/27 13:50:31;;;;;;;2.05;1.40;;;;;;;-145.48;100.00;64539.38;6002141;29;20136;-92
2022/10/27 13:53:33;;;;;;;3.70;1.48;;;;;;;-145.48;100.00;64539.38;5999556;29;20053;-91
2022/10/27 13:56:38;;;;;;;4.18;1.52;;;;;;;-145.48;100.00;64539.38;5998720;29;20045;-91
2022/10/27 13:59:40;;;;;;;2.53;1.55;;;;;;;-145.48;100.00;64539.38;6001444;29;20467;-92
2022/10/27 14:03:03;;;;;;;3.88;1.38;;;;;;;-145.48;100.00;64539.38;5999657;29;20492;-92
2022/10/27 14:06:08;;;;;;;2.35;1.30;;;;;;;-145.48;100.00;64539.38;5989717;29;20051;-91
2022/10/27 14:09:44;;;;;;;1.85;1.30;;;;;;;-145.48;100.00;64539.38;5985969;29;20133;-91
2022/10/27 14:12:46;;;;;;;4.97;1.75;;;;;;;-145.48;100.00;64539.38;5991999;29;20317;-91
2022/10/27 14:15:55;;;;;;;2.83;1.38;;;;;;;-145.48;100.00;64539.38;6000278;29;20110;-91
2022/10/27 14:19:11;;;;;;;3.05;1.80;;;;;;;-145.48;100.00;64539.38;5990615;29;20061;-92